sensor_id;sensor_type;location;lat;lon;timestamp;P1;durP1;ratioP1;P2;durP2;ratioP2
18596;SDS011;9428;50.950;6.912;2023-04-25T00:00:22;12.43;;;4.10;;
18596;SDS011;9428;50.950;6.912;2023-04-25T00:03:10;14.43;;;4.50;;
18596;SDS011;9428;50.950;6.912;2023-04-25T00:05:59;12.48;;;4.65;;
18596;SDS011;9428;50.950;6.912;2023-04-25T00:08:47;8.93;;;4.10;;
18596;SDS011;9428;50.950;6.912;2023-04-25T00:11:35;14.03;;;4.40;;
18596;SDS011;9428;50.950;6.912;2023-04-25T00:14:23;10.50;;;3.70;;
18596;SDS011;9428;50.950;6.912;2023-04-25T00:17:10;10.43;;;4.57;;
18596;SDS011;9428;50.950;6.912;2023-04-25T00:19:57;11.38;;;4.85;;
18596;SDS011;9428;50.950;6.912;2023-04-25T00:22:46;14.80;;;4.87;;
18596;SDS011;9428;50.950;6.912;2023-04-25T00:25:33;19.73;;;4.77;;
18596;SDS011;9428;50.950;6.912;2023-04-25T00:28:21;12.93;;;4.83;;
18596;SDS011;9428;50.950;6.912;2023-04-25T00:31:08;11.17;;;4.80;;
18596;SDS011;9428;50.950;6.912;2023-04-25T00:33:55;10.73;;;4.53;;
18596;SDS011;9428;50.950;6.912;2023-04-25T00:36:42;13.82;;;5.60;;
18596;SDS011;9428;50.950;6.912;2023-04-25T00:39:31;15.05;;;4.47;;
18596;SDS011;9428;50.950;6.912;2023-04-25T00:42:18;17.73;;;5.40;;
18596;SDS011;9428;50.950;6.912;2023-04-25T00:45:06;13.00;;;4.83;;
18596;SDS011;9428;50.950;6.912;2023-04-25T00:47:58;10.50;;;4.87;;
18596;SDS011;9428;50.950;6.912;2023-04-25T00:50:48;11.40;;;5.00;;
18596;SDS011;9428;50.950;6.912;2023-04-25T00:53:38;20.40;;;5.00;;
18596;SDS011;9428;50.950;6.912;2023-04-25T00:56:27;15.87;;;4.90;;
18596;SDS011;9428;50.950;6.912;2023-04-25T00:59:14;14.40;;;4.90;;
18596;SDS011;9428;50.950;6.912;2023-04-25T01:02:04;13.07;;;4.60;;
18596;SDS011;9428;50.950;6.912;2023-04-25T01:04:52;17.13;;;5.37;;
18596;SDS011;9428;50.950;6.912;2023-04-25T01:07:39;12.63;;;5.57;;
18596;SDS011;9428;50.950;6.912;2023-04-25T01:10:27;14.50;;;5.23;;
18596;SDS011;9428;50.950;6.912;2023-04-25T01:13:16;20.23;;;4.73;;
18596;SDS011;9428;50.950;6.912;2023-04-25T01:16:03;15.17;;;5.07;;
18596;SDS011;9428;50.950;6.912;2023-04-25T01:18:51;9.70;;;5.10;;
18596;SDS011;9428;50.950;6.912;2023-04-25T01:21:40;16.20;;;5.50;;
18596;SDS011;9428;50.950;6.912;2023-04-25T01:24:27;11.43;;;5.27;;
18596;SDS011;9428;50.950;6.912;2023-04-25T01:27:14;14.80;;;5.27;;
18596;SDS011;9428;50.950;6.912;2023-04-25T01:30:02;16.70;;;4.87;;
18596;SDS011;9428;50.950;6.912;2023-04-25T01:32:51;16.37;;;5.33;;
18596;SDS011;9428;50.950;6.912;2023-04-25T01:35:38;15.83;;;4.53;;
18596;SDS011;9428;50.950;6.912;2023-04-25T01:38:27;12.17;;;4.87;;
18596;SDS011;9428;50.950;6.912;2023-04-25T01:41:14;13.60;;;4.50;;
18596;SDS011;9428;50.950;6.912;2023-04-25T01:44:03;22.17;;;5.83;;
18596;SDS011;9428;50.950;6.912;2023-04-25T01:46:51;17.17;;;5.00;;
18596;SDS011;9428;50.950;6.912;2023-04-25T01:49:38;11.77;;;4.53;;
18596;SDS011;9428;50.950;6.912;2023-04-25T01:52:25;17.30;;;4.38;;
18596;SDS011;9428;50.950;6.912;2023-04-25T01:55:14;14.40;;;5.00;;
18596;SDS011;9428;50.950;6.912;2023-04-25T01:58:01;15.57;;;5.03;;
18596;SDS011;9428;50.950;6.912;2023-04-25T02:00:54;12.83;;;4.73;;
18596;SDS011;9428;50.950;6.912;2023-04-25T02:03:41;10.90;;;4.27;;
18596;SDS011;9428;50.950;6.912;2023-04-25T02:06:29;12.67;;;4.40;;
18596;SDS011;9428;50.950;6.912;2023-04-25T02:09:17;12.63;;;4.50;;
18596;SDS011;9428;50.950;6.912;2023-04-25T02:12:07;19.57;;;4.43;;
18596;SDS011;9428;50.950;6.912;2023-04-25T02:14:54;11.33;;;4.33;;
18596;SDS011;9428;50.950;6.912;2023-04-25T02:17:41;8.30;;;3.70;;
18596;SDS011;9428;50.950;6.912;2023-04-25T02:20:30;16.90;;;4.67;;
18596;SDS011;9428;50.950;6.912;2023-04-25T02:23:17;16.57;;;4.57;;
18596;SDS011;9428;50.950;6.912;2023-04-25T02:26:05;10.23;;;4.60;;
18596;SDS011;9428;50.950;6.912;2023-04-25T02:28:53;8.43;;;3.87;;
18596;SDS011;9428;50.950;6.912;2023-04-25T02:31:40;8.83;;;4.63;;
18596;SDS011;9428;50.950;6.912;2023-04-25T02:34:28;14.83;;;4.03;;
18596;SDS011;9428;50.950;6.912;2023-04-25T02:37:15;12.20;;;3.67;;
18596;SDS011;9428;50.950;6.912;2023-04-25T02:40:02;10.37;;;3.70;;
18596;SDS011;9428;50.950;6.912;2023-04-25T02:42:50;8.53;;;4.30;;
18596;SDS011;9428;50.950;6.912;2023-04-25T02:45:39;13.33;;;4.00;;
18596;SDS011;9428;50.950;6.912;2023-04-25T02:48:26;9.90;;;3.80;;
18596;SDS011;9428;50.950;6.912;2023-04-25T02:51:14;23.43;;;4.77;;
18596;SDS011;9428;50.950;6.912;2023-04-25T02:54:01;13.77;;;4.60;;
18596;SDS011;9428;50.950;6.912;2023-04-25T02:56:49;11.63;;;4.17;;
18596;SDS011;9428;50.950;6.912;2023-04-25T02:59:36;8.53;;;3.87;;
18596;SDS011;9428;50.950;6.912;2023-04-25T03:02:25;10.57;;;3.57;;
18596;SDS011;9428;50.950;6.912;2023-04-25T03:05:12;10.90;;;4.03;;
18596;SDS011;9428;50.950;6.912;2023-04-25T03:08:00;14.80;;;4.60;;
18596;SDS011;9428;50.950;6.912;2023-04-25T03:10:48;14.10;;;3.83;;
18596;SDS011;9428;50.950;6.912;2023-04-25T03:13:37;12.93;;;3.60;;
18596;SDS011;9428;50.950;6.912;2023-04-25T03:16:24;12.67;;;4.17;;
18596;SDS011;9428;50.950;6.912;2023-04-25T03:19:13;9.13;;;3.97;;
18596;SDS011;9428;50.950;6.912;2023-04-25T03:22:01;10.30;;;4.03;;
18596;SDS011;9428;50.950;6.912;2023-04-25T03:24:48;12.43;;;3.63;;
18596;SDS011;9428;50.950;6.912;2023-04-25T03:27:36;9.67;;;3.93;;
18596;SDS011;9428;50.950;6.912;2023-04-25T03:30:23;16.47;;;4.03;;
18596;SDS011;9428;50.950;6.912;2023-04-25T03:33:10;12.43;;;3.80;;
18596;SDS011;9428;50.950;6.912;2023-04-25T03:35:59;10.67;;;3.83;;
18596;SDS011;9428;50.950;6.912;2023-04-25T03:38:46;10.00;;;4.07;;
18596;SDS011;9428;50.950;6.912;2023-04-25T03:41:34;14.33;;;4.80;;
18596;SDS011;9428;50.950;6.912;2023-04-25T03:44:21;8.37;;;4.20;;
18596;SDS011;9428;50.950;6.912;2023-04-25T03:47:09;14.03;;;4.23;;
18596;SDS011;9428;50.950;6.912;2023-04-25T03:49:56;9.43;;;4.30;;
18596;SDS011;9428;50.950;6.912;2023-04-25T03:52:47;10.70;;;4.60;;
18596;SDS011;9428;50.950;6.912;2023-04-25T03:55:34;9.20;;;4.03;;
18596;SDS011;9428;50.950;6.912;2023-04-25T03:58:21;12.13;;;4.60;;
18596;SDS011;9428;50.950;6.912;2023-04-25T04:01:09;10.00;;;4.13;;
18596;SDS011;9428;50.950;6.912;2023-04-25T04:03:56;13.33;;;4.77;;
18596;SDS011;9428;50.950;6.912;2023-04-25T04:06:44;13.37;;;4.73;;
18596;SDS011;9428;50.950;6.912;2023-04-25T04:09:32;10.53;;;4.10;;
18596;SDS011;9428;50.950;6.912;2023-04-25T04:12:20;9.80;;;3.83;;
18596;SDS011;9428;50.950;6.912;2023-04-25T04:15:07;19.30;;;4.33;;
18596;SDS011;9428;50.950;6.912;2023-04-25T04:17:55;15.07;;;4.70;;
18596;SDS011;9428;50.950;6.912;2023-04-25T04:20:42;13.87;;;4.43;;
18596;SDS011;9428;50.950;6.912;2023-04-25T04:23:29;14.20;;;4.60;;
18596;SDS011;9428;50.950;6.912;2023-04-25T04:26:18;12.93;;;4.30;;
18596;SDS011;9428;50.950;6.912;2023-04-25T04:29:08;13.73;;;4.37;;
18596;SDS011;9428;50.950;6.912;2023-04-25T04:31:56;10.03;;;4.40;;
18596;SDS011;9428;50.950;6.912;2023-04-25T04:34:43;16.17;;;4.80;;
18596;SDS011;9428;50.950;6.912;2023-04-25T04:37:32;14.80;;;4.70;;
18596;SDS011;9428;50.950;6.912;2023-04-25T04:40:19;10.30;;;4.40;;
18596;SDS011;9428;50.950;6.912;2023-04-25T04:43:08;10.40;;;4.00;;
18596;SDS011;9428;50.950;6.912;2023-04-25T04:45:56;15.63;;;3.97;;
18596;SDS011;9428;50.950;6.912;2023-04-25T04:48:43;16.20;;;5.10;;
18596;SDS011;9428;50.950;6.912;2023-04-25T04:51:30;13.20;;;4.67;;
18596;SDS011;9428;50.950;6.912;2023-04-25T04:54:18;12.70;;;5.07;;
18596;SDS011;9428;50.950;6.912;2023-04-25T04:57:05;12.57;;;4.67;;
18596;SDS011;9428;50.950;6.912;2023-04-25T04:59:54;16.57;;;4.73;;
18596;SDS011;9428;50.950;6.912;2023-04-25T05:02:41;13.13;;;4.77;;
18596;SDS011;9428;50.950;6.912;2023-04-25T05:05:28;11.17;;;4.43;;
18596;SDS011;9428;50.950;6.912;2023-04-25T05:08:15;15.43;;;4.97;;
18596;SDS011;9428;50.950;6.912;2023-04-25T05:11:03;17.03;;;5.47;;
18596;SDS011;9428;50.950;6.912;2023-04-25T05:13:50;13.70;;;5.37;;
18596;SDS011;9428;50.950;6.912;2023-04-25T05:16:39;10.97;;;5.03;;
18596;SDS011;9428;50.950;6.912;2023-04-25T05:19:27;13.40;;;4.13;;
18596;SDS011;9428;50.950;6.912;2023-04-25T05:22:14;13.63;;;5.10;;
18596;SDS011;9428;50.950;6.912;2023-04-25T05:25:01;16.37;;;4.93;;
18596;SDS011;9428;50.950;6.912;2023-04-25T05:27:49;9.83;;;4.47;;
18596;SDS011;9428;50.950;6.912;2023-04-25T05:30:37;10.37;;;4.80;;
18596;SDS011;9428;50.950;6.912;2023-04-25T05:33:26;11.97;;;4.37;;
18596;SDS011;9428;50.950;6.912;2023-04-25T05:36:13;17.87;;;5.07;;
18596;SDS011;9428;50.950;6.912;2023-04-25T05:39:00;13.53;;;4.80;;
18596;SDS011;9428;50.950;6.912;2023-04-25T05:41:49;14.03;;;4.90;;
18596;SDS011;9428;50.950;6.912;2023-04-25T05:44:36;15.47;;;4.37;;
18596;SDS011;9428;50.950;6.912;2023-04-25T05:47:24;18.67;;;4.83;;
18596;SDS011;9428;50.950;6.912;2023-04-25T05:50:12;17.10;;;5.07;;
18596;SDS011;9428;50.950;6.912;2023-04-25T05:52:59;13.82;;;5.22;;
18596;SDS011;9428;50.950;6.912;2023-04-25T05:55:47;16.65;;;4.85;;
18596;SDS011;9428;50.950;6.912;2023-04-25T05:58:35;15.63;;;4.30;;
18596;SDS011;9428;50.950;6.912;2023-04-25T06:01:22;11.63;;;4.80;;
18596;SDS011;9428;50.950;6.912;2023-04-25T06:04:09;12.53;;;4.10;;
18596;SDS011;9428;50.950;6.912;2023-04-25T06:06:58;15.67;;;4.57;;
18596;SDS011;9428;50.950;6.912;2023-04-25T06:09:45;20.87;;;5.30;;
18596;SDS011;9428;50.950;6.912;2023-04-25T06:12:33;13.23;;;4.60;;
18596;SDS011;9428;50.950;6.912;2023-04-25T06:15:20;16.47;;;4.33;;
18596;SDS011;9428;50.950;6.912;2023-04-25T06:18:07;15.57;;;4.45;;
18596;SDS011;9428;50.950;6.912;2023-04-25T06:20:54;18.67;;;4.17;;
18596;SDS011;9428;50.950;6.912;2023-04-25T06:23:43;9.80;;;4.03;;
18596;SDS011;9428;50.950;6.912;2023-04-25T06:26:30;9.13;;;3.70;;
18596;SDS011;9428;50.950;6.912;2023-04-25T06:29:17;14.52;;;3.80;;
18596;SDS011;9428;50.950;6.912;2023-04-25T06:32:05;16.50;;;4.32;;
18596;SDS011;9428;50.950;6.912;2023-04-25T06:34:52;18.13;;;4.57;;
18596;SDS011;9428;50.950;6.912;2023-04-25T06:37:39;15.10;;;3.80;;
18596;SDS011;9428;50.950;6.912;2023-04-25T06:40:28;14.18;;;4.03;;
18596;SDS011;9428;50.950;6.912;2023-04-25T06:43:15;12.00;;;3.47;;
18596;SDS011;9428;50.950;6.912;2023-04-25T06:46:02;15.67;;;3.77;;
18596;SDS011;9428;50.950;6.912;2023-04-25T06:48:49;13.77;;;3.80;;
18596;SDS011;9428;50.950;6.912;2023-04-25T06:51:36;9.18;;;3.50;;
18596;SDS011;9428;50.950;6.912;2023-04-25T06:54:24;14.63;;;3.80;;
18596;SDS011;9428;50.950;6.912;2023-04-25T06:57:14;11.98;;;4.13;;
18596;SDS011;9428;50.950;6.912;2023-04-25T07:00:01;9.02;;;3.50;;
18596;SDS011;9428;50.950;6.912;2023-04-25T07:02:50;22.00;;;4.13;;
18596;SDS011;9428;50.950;6.912;2023-04-25T07:05:38;12.60;;;3.95;;
18596;SDS011;9428;50.950;6.912;2023-04-25T07:08:25;14.38;;;3.65;;
18596;SDS011;9428;50.950;6.912;2023-04-25T07:11:12;16.95;;;3.47;;
18596;SDS011;9428;50.950;6.912;2023-04-25T07:14:01;10.95;;;4.10;;
18596;SDS011;9428;50.950;6.912;2023-04-25T07:16:48;13.32;;;3.30;;
18596;SDS011;9428;50.950;6.912;2023-04-25T07:19:35;8.30;;;2.95;;
18596;SDS011;9428;50.950;6.912;2023-04-25T07:22:25;15.60;;;2.97;;
18596;SDS011;9428;50.950;6.912;2023-04-25T07:25:12;12.95;;;3.30;;
18596;SDS011;9428;50.950;6.912;2023-04-25T07:28:00;11.82;;;3.35;;
18596;SDS011;9428;50.950;6.912;2023-04-25T07:30:48;9.32;;;3.00;;
18596;SDS011;9428;50.950;6.912;2023-04-25T07:33:36;14.38;;;3.35;;
18596;SDS011;9428;50.950;6.912;2023-04-25T07:36:23;10.73;;;2.70;;
18596;SDS011;9428;50.950;6.912;2023-04-25T07:39:11;6.50;;;2.60;;
18596;SDS011;9428;50.950;6.912;2023-04-25T07:41:59;10.75;;;3.63;;
18596;SDS011;9428;50.950;6.912;2023-04-25T07:44:47;10.88;;;3.28;;
18596;SDS011;9428;50.950;6.912;2023-04-25T07:47:38;12.05;;;3.58;;
18596;SDS011;9428;50.950;6.912;2023-04-25T07:50:25;10.88;;;3.00;;
18596;SDS011;9428;50.950;6.912;2023-04-25T07:53:12;7.10;;;2.90;;
18596;SDS011;9428;50.950;6.912;2023-04-25T07:55:59;15.52;;;3.90;;
18596;SDS011;9428;50.950;6.912;2023-04-25T07:58:49;8.43;;;2.83;;
18596;SDS011;9428;50.950;6.912;2023-04-25T08:01:37;13.15;;;3.92;;
18596;SDS011;9428;50.950;6.912;2023-04-25T08:04:25;10.63;;;3.40;;
18596;SDS011;9428;50.950;6.912;2023-04-25T08:07:12;14.23;;;3.40;;
18596;SDS011;9428;50.950;6.912;2023-04-25T08:10:00;12.98;;;2.83;;
18596;SDS011;9428;50.950;6.912;2023-04-25T08:12:48;11.70;;;2.47;;
18596;SDS011;9428;50.950;6.912;2023-04-25T08:15:35;8.75;;;3.00;;
18596;SDS011;9428;50.950;6.912;2023-04-25T08:18:22;10.85;;;2.60;;
18596;SDS011;9428;50.950;6.912;2023-04-25T08:21:11;9.05;;;2.67;;
18596;SDS011;9428;50.950;6.912;2023-04-25T08:23:58;15.38;;;3.67;;
18596;SDS011;9428;50.950;6.912;2023-04-25T08:26:46;12.15;;;3.17;;
18596;SDS011;9428;50.950;6.912;2023-04-25T08:29:33;13.85;;;3.30;;
18596;SDS011;9428;50.950;6.912;2023-04-25T08:32:20;9.35;;;3.03;;
18596;SDS011;9428;50.950;6.912;2023-04-25T08:35:08;12.20;;;3.47;;
18596;SDS011;9428;50.950;6.912;2023-04-25T08:37:56;7.43;;;2.38;;
18596;SDS011;9428;50.950;6.912;2023-04-25T08:40:44;8.38;;;2.70;;
18596;SDS011;9428;50.950;6.912;2023-04-25T08:43:35;9.07;;;2.38;;
18596;SDS011;9428;50.950;6.912;2023-04-25T08:46:24;4.82;;;2.28;;
18596;SDS011;9428;50.950;6.912;2023-04-25T08:49:11;5.10;;;2.05;;
18596;SDS011;9428;50.950;6.912;2023-04-25T08:51:59;3.45;;;1.92;;
18596;SDS011;9428;50.950;6.912;2023-04-25T08:54:49;9.18;;;2.38;;
18596;SDS011;9428;50.950;6.912;2023-04-25T08:57:38;7.57;;;2.20;;
18596;SDS011;9428;50.950;6.912;2023-04-25T09:00:26;8.25;;;2.05;;
18596;SDS011;9428;50.950;6.912;2023-04-25T09:03:14;4.85;;;2.00;;
18596;SDS011;9428;50.950;6.912;2023-04-25T09:06:01;12.48;;;2.38;;
18596;SDS011;9428;50.950;6.912;2023-04-25T09:08:49;13.55;;;2.70;;
18596;SDS011;9428;50.950;6.912;2023-04-25T09:11:38;7.72;;;2.38;;
18596;SDS011;9428;50.950;6.912;2023-04-25T09:14:26;7.10;;;2.63;;
18596;SDS011;9428;50.950;6.912;2023-04-25T09:17:13;12.20;;;2.30;;
18596;SDS011;9428;50.950;6.912;2023-04-25T09:20:07;9.30;;;2.30;;
18596;SDS011;9428;50.950;6.912;2023-04-25T09:23:00;9.80;;;2.65;;
18596;SDS011;9428;50.950;6.912;2023-04-25T09:25:48;8.95;;;2.35;;
18596;SDS011;9428;50.950;6.912;2023-04-25T09:28:38;6.00;;;2.10;;
18596;SDS011;9428;50.950;6.912;2023-04-25T09:31:25;8.20;;;2.47;;
18596;SDS011;9428;50.950;6.912;2023-04-25T09:34:12;9.95;;;2.42;;
18596;SDS011;9428;50.950;6.912;2023-04-25T09:37:01;8.88;;;2.35;;
18596;SDS011;9428;50.950;6.912;2023-04-25T09:39:48;7.55;;;2.00;;
18596;SDS011;9428;50.950;6.912;2023-04-25T09:42:40;9.23;;;2.45;;
18596;SDS011;9428;50.950;6.912;2023-04-25T09:45:30;5.80;;;1.92;;
18596;SDS011;9428;50.950;6.912;2023-04-25T09:48:18;12.82;;;3.75;;
18596;SDS011;9428;50.950;6.912;2023-04-25T09:51:07;6.55;;;2.00;;
18596;SDS011;9428;50.950;6.912;2023-04-25T09:53:55;8.88;;;2.50;;
18596;SDS011;9428;50.950;6.912;2023-04-25T09:56:42;7.10;;;2.33;;
18596;SDS011;9428;50.950;6.912;2023-04-25T09:59:33;8.93;;;1.98;;
18596;SDS011;9428;50.950;6.912;2023-04-25T10:02:25;8.52;;;1.88;;
18596;SDS011;9428;50.950;6.912;2023-04-25T10:05:13;5.85;;;2.10;;
18596;SDS011;9428;50.950;6.912;2023-04-25T10:08:02;7.65;;;2.78;;
18596;SDS011;9428;50.950;6.912;2023-04-25T10:10:50;4.07;;;2.05;;
18596;SDS011;9428;50.950;6.912;2023-04-25T10:13:37;11.10;;;2.70;;
18596;SDS011;9428;50.950;6.912;2023-04-25T10:16:25;12.05;;;2.13;;
18596;SDS011;9428;50.950;6.912;2023-04-25T10:19:14;6.43;;;2.40;;
18596;SDS011;9428;50.950;6.912;2023-04-25T10:22:03;8.98;;;2.65;;
18596;SDS011;9428;50.950;6.912;2023-04-25T10:24:53;8.15;;;2.17;;
18596;SDS011;9428;50.950;6.912;2023-04-25T10:27:42;8.10;;;1.75;;
18596;SDS011;9428;50.950;6.912;2023-04-25T10:30:30;9.50;;;2.75;;
18596;SDS011;9428;50.950;6.912;2023-04-25T10:33:17;11.32;;;2.40;;
18596;SDS011;9428;50.950;6.912;2023-04-25T10:36:10;8.82;;;2.15;;
18596;SDS011;9428;50.950;6.912;2023-04-25T10:38:58;7.85;;;2.22;;
18596;SDS011;9428;50.950;6.912;2023-04-25T10:41:53;7.00;;;1.92;;
18596;SDS011;9428;50.950;6.912;2023-04-25T10:44:47;5.30;;;1.73;;
18596;SDS011;9428;50.950;6.912;2023-04-25T10:47:48;5.97;;;1.92;;
18596;SDS011;9428;50.950;6.912;2023-04-25T10:50:37;5.95;;;2.42;;
18596;SDS011;9428;50.950;6.912;2023-04-25T10:53:26;7.65;;;3.10;;
18596;SDS011;9428;50.950;6.912;2023-04-25T10:56:19;6.18;;;2.28;;
18596;SDS011;9428;50.950;6.912;2023-04-25T10:59:08;7.75;;;2.13;;
18596;SDS011;9428;50.950;6.912;2023-04-25T11:01:56;8.43;;;2.03;;
18596;SDS011;9428;50.950;6.912;2023-04-25T11:04:44;10.90;;;2.30;;
18596;SDS011;9428;50.950;6.912;2023-04-25T11:07:33;5.90;;;1.95;;
18596;SDS011;9428;50.950;6.912;2023-04-25T11:10:30;5.32;;;1.60;;
18596;SDS011;9428;50.950;6.912;2023-04-25T11:13:19;6.65;;;1.50;;
18596;SDS011;9428;50.950;6.912;2023-04-25T11:16:07;3.35;;;1.67;;
18596;SDS011;9428;50.950;6.912;2023-04-25T11:18:56;3.88;;;1.60;;
18596;SDS011;9428;50.950;6.912;2023-04-25T11:21:44;5.55;;;1.77;;
18596;SDS011;9428;50.950;6.912;2023-04-25T11:24:32;4.45;;;2.45;;
18596;SDS011;9428;50.950;6.912;2023-04-25T11:27:22;3.92;;;1.40;;
18596;SDS011;9428;50.950;6.912;2023-04-25T11:30:11;8.38;;;1.95;;
18596;SDS011;9428;50.950;6.912;2023-04-25T11:33:00;14.93;;;1.70;;
18596;SDS011;9428;50.950;6.912;2023-04-25T11:35:48;9.05;;;2.00;;
18596;SDS011;9428;50.950;6.912;2023-04-25T11:38:35;6.57;;;1.98;;
18596;SDS011;9428;50.950;6.912;2023-04-25T11:41:23;9.43;;;2.72;;
18596;SDS011;9428;50.950;6.912;2023-04-25T11:44:13;11.88;;;2.13;;
18596;SDS011;9428;50.950;6.912;2023-04-25T11:47:02;8.20;;;1.67;;
18596;SDS011;9428;50.950;6.912;2023-04-25T11:49:50;8.48;;;1.55;;
18596;SDS011;9428;50.950;6.912;2023-04-25T11:52:41;4.05;;;1.30;;
18596;SDS011;9428;50.950;6.912;2023-04-25T11:55:29;3.22;;;1.52;;
18596;SDS011;9428;50.950;6.912;2023-04-25T11:58:17;10.02;;;1.92;;
18596;SDS011;9428;50.950;6.912;2023-04-25T12:01:06;9.02;;;1.38;;
18596;SDS011;9428;50.950;6.912;2023-04-25T12:03:53;6.25;;;1.77;;
18596;SDS011;9428;50.950;6.912;2023-04-25T12:06:41;3.78;;;1.45;;
18596;SDS011;9428;50.950;6.912;2023-04-25T12:09:32;3.47;;;1.50;;
18596;SDS011;9428;50.950;6.912;2023-04-25T12:12:20;4.15;;;1.35;;
18596;SDS011;9428;50.950;6.912;2023-04-25T12:15:11;2.85;;;1.42;;
18596;SDS011;9428;50.950;6.912;2023-04-25T12:18:02;5.18;;;1.38;;
18596;SDS011;9428;50.950;6.912;2023-04-25T12:20:49;3.33;;;1.33;;
18596;SDS011;9428;50.950;6.912;2023-04-25T12:23:38;5.32;;;1.80;;
18596;SDS011;9428;50.950;6.912;2023-04-25T12:26:26;6.80;;;1.85;;
18596;SDS011;9428;50.950;6.912;2023-04-25T12:29:33;5.72;;;1.80;;
18596;SDS011;9428;50.950;6.912;2023-04-25T12:32:20;3.95;;;1.63;;
18596;SDS011;9428;50.950;6.912;2023-04-25T12:35:09;3.65;;;1.48;;
18596;SDS011;9428;50.950;6.912;2023-04-25T12:37:56;4.63;;;1.48;;
18596;SDS011;9428;50.950;6.912;2023-04-25T12:40:43;4.63;;;1.40;;
18596;SDS011;9428;50.950;6.912;2023-04-25T12:43:31;3.50;;;1.60;;
18596;SDS011;9428;50.950;6.912;2023-04-25T12:46:18;4.88;;;1.60;;
18596;SDS011;9428;50.950;6.912;2023-04-25T12:49:05;4.43;;;1.65;;
18596;SDS011;9428;50.950;6.912;2023-04-25T12:51:54;6.32;;;1.42;;
18596;SDS011;9428;50.950;6.912;2023-04-25T12:54:42;6.80;;;1.75;;
18596;SDS011;9428;50.950;6.912;2023-04-25T12:57:29;5.45;;;1.73;;
18596;SDS011;9428;50.950;6.912;2023-04-25T13:00:16;4.70;;;1.75;;
18596;SDS011;9428;50.950;6.912;2023-04-25T13:03:05;3.92;;;1.50;;
18596;SDS011;9428;50.950;6.912;2023-04-25T13:05:52;4.05;;;1.83;;
18596;SDS011;9428;50.950;6.912;2023-04-25T13:08:41;5.63;;;2.20;;
18596;SDS011;9428;50.950;6.912;2023-04-25T13:11:28;5.45;;;1.45;;
18596;SDS011;9428;50.950;6.912;2023-04-25T13:14:15;4.40;;;1.65;;
18596;SDS011;9428;50.950;6.912;2023-04-25T13:17:03;5.10;;;1.58;;
18596;SDS011;9428;50.950;6.912;2023-04-25T13:19:50;6.32;;;1.40;;
18596;SDS011;9428;50.950;6.912;2023-04-25T13:22:37;2.90;;;1.30;;
18596;SDS011;9428;50.950;6.912;2023-04-25T13:25:26;3.55;;;1.40;;
18596;SDS011;9428;50.950;6.912;2023-04-25T13:28:13;1.90;;;1.48;;
18596;SDS011;9428;50.950;6.912;2023-04-25T13:31:01;2.95;;;1.33;;
18596;SDS011;9428;50.950;6.912;2023-04-25T13:33:48;3.15;;;1.33;;
18596;SDS011;9428;50.950;6.912;2023-04-25T13:36:35;4.32;;;1.30;;
18596;SDS011;9428;50.950;6.912;2023-04-25T13:39:23;2.75;;;1.20;;
18596;SDS011;9428;50.950;6.912;2023-04-25T13:42:11;3.58;;;1.33;;
18596;SDS011;9428;50.950;6.912;2023-04-25T13:44:59;1.75;;;1.10;;
18596;SDS011;9428;50.950;6.912;2023-04-25T13:47:46;2.65;;;1.50;;
18596;SDS011;9428;50.950;6.912;2023-04-25T13:50:33;4.20;;;1.40;;
18596;SDS011;9428;50.950;6.912;2023-04-25T13:53:20;4.03;;;1.10;;
18596;SDS011;9428;50.950;6.912;2023-04-25T13:56:07;4.40;;;1.50;;
18596;SDS011;9428;50.950;6.912;2023-04-25T13:58:57;1.40;;;1.05;;
18596;SDS011;9428;50.950;6.912;2023-04-25T14:01:44;4.55;;;1.35;;
18596;SDS011;9428;50.950;6.912;2023-04-25T14:04:32;3.45;;;1.58;;
18596;SDS011;9428;50.950;6.912;2023-04-25T14:07:19;2.10;;;1.00;;
18596;SDS011;9428;50.950;6.912;2023-04-25T14:10:06;2.60;;;1.25;;
18596;SDS011;9428;50.950;6.912;2023-04-25T14:12:54;2.40;;;1.42;;
18596;SDS011;9428;50.950;6.912;2023-04-25T14:15:42;5.53;;;1.40;;
18596;SDS011;9428;50.950;6.912;2023-04-25T14:18:29;3.10;;;1.33;;
18596;SDS011;9428;50.950;6.912;2023-04-25T14:21:17;5.25;;;1.33;;
18596;SDS011;9428;50.950;6.912;2023-04-25T14:24:05;4.25;;;1.30;;
18596;SDS011;9428;50.950;6.912;2023-04-25T14:26:53;2.35;;;1.23;;
18596;SDS011;9428;50.950;6.912;2023-04-25T14:29:40;5.10;;;1.30;;
18596;SDS011;9428;50.950;6.912;2023-04-25T14:32:29;3.72;;;1.15;;
18596;SDS011;9428;50.950;6.912;2023-04-25T14:35:17;2.83;;;1.10;;
18596;SDS011;9428;50.950;6.912;2023-04-25T14:38:05;4.15;;;1.33;;
18596;SDS011;9428;50.950;6.912;2023-04-25T14:40:53;1.63;;;0.85;;
18596;SDS011;9428;50.950;6.912;2023-04-25T14:43:40;1.45;;;0.90;;
18596;SDS011;9428;50.950;6.912;2023-04-25T14:46:27;3.90;;;1.10;;
18596;SDS011;9428;50.950;6.912;2023-04-25T14:49:16;3.28;;;0.93;;
18596;SDS011;9428;50.950;6.912;2023-04-25T14:52:03;3.25;;;1.13;;
18596;SDS011;9428;50.950;6.912;2023-04-25T14:54:51;3.33;;;1.08;;
18596;SDS011;9428;50.950;6.912;2023-04-25T14:57:38;1.45;;;1.10;;
18596;SDS011;9428;50.950;6.912;2023-04-25T15:00:26;2.30;;;1.25;;
18596;SDS011;9428;50.950;6.912;2023-04-25T15:03:13;3.00;;;1.13;;
18596;SDS011;9428;50.950;6.912;2023-04-25T15:06:03;4.00;;;1.45;;
18596;SDS011;9428;50.950;6.912;2023-04-25T15:08:51;4.18;;;1.10;;
18596;SDS011;9428;50.950;6.912;2023-04-25T15:11:38;5.55;;;1.15;;
18596;SDS011;9428;50.950;6.912;2023-04-25T15:14:25;4.38;;;2.03;;
18596;SDS011;9428;50.950;6.912;2023-04-25T15:17:13;3.17;;;1.40;;
18596;SDS011;9428;50.950;6.912;2023-04-25T15:20:00;3.67;;;1.23;;
18596;SDS011;9428;50.950;6.912;2023-04-25T15:22:49;2.75;;;1.52;;
18596;SDS011;9428;50.950;6.912;2023-04-25T15:25:36;3.33;;;1.40;;
18596;SDS011;9428;50.950;6.912;2023-04-25T15:28:23;6.57;;;1.48;;
18596;SDS011;9428;50.950;6.912;2023-04-25T15:31:10;4.60;;;1.30;;
18596;SDS011;9428;50.950;6.912;2023-04-25T15:33:57;5.32;;;1.40;;
18596;SDS011;9428;50.950;6.912;2023-04-25T15:36:45;9.27;;;1.80;;
18596;SDS011;9428;50.950;6.912;2023-04-25T15:39:34;6.72;;;1.40;;
18596;SDS011;9428;50.950;6.912;2023-04-25T15:42:21;3.72;;;1.45;;
18596;SDS011;9428;50.950;6.912;2023-04-25T15:45:09;5.28;;;1.58;;
18596;SDS011;9428;50.950;6.912;2023-04-25T15:47:57;7.72;;;1.33;;
18596;SDS011;9428;50.950;6.912;2023-04-25T15:50:46;4.15;;;1.77;;
18596;SDS011;9428;50.950;6.912;2023-04-25T15:53:33;3.15;;;1.38;;
18596;SDS011;9428;50.950;6.912;2023-04-25T15:56:22;3.60;;;1.75;;
18596;SDS011;9428;50.950;6.912;2023-04-25T15:59:09;5.25;;;1.63;;
18596;SDS011;9428;50.950;6.912;2023-04-25T16:01:56;5.07;;;1.50;;
18596;SDS011;9428;50.950;6.912;2023-04-25T16:04:44;5.15;;;1.63;;
18596;SDS011;9428;50.950;6.912;2023-04-25T16:07:31;7.15;;;1.50;;
18596;SDS011;9428;50.950;6.912;2023-04-25T16:10:18;5.10;;;2.13;;
18596;SDS011;9428;50.950;6.912;2023-04-25T16:13:08;4.28;;;1.65;;
18596;SDS011;9428;50.950;6.912;2023-04-25T16:15:55;4.43;;;1.50;;
18596;SDS011;9428;50.950;6.912;2023-04-25T16:18:42;5.32;;;1.58;;
18596;SDS011;9428;50.950;6.912;2023-04-25T16:21:30;1.80;;;1.20;;
18596;SDS011;9428;50.950;6.912;2023-04-25T16:24:17;4.65;;;1.50;;
18596;SDS011;9428;50.950;6.912;2023-04-25T16:27:04;4.82;;;1.13;;
18596;SDS011;9428;50.950;6.912;2023-04-25T16:29:53;3.90;;;1.48;;
18596;SDS011;9428;50.950;6.912;2023-04-25T16:32:40;2.83;;;1.20;;
18596;SDS011;9428;50.950;6.912;2023-04-25T16:35:27;3.22;;;1.20;;
18596;SDS011;9428;50.950;6.912;2023-04-25T16:38:16;5.22;;;2.00;;
18596;SDS011;9428;50.950;6.912;2023-04-25T16:41:04;6.32;;;2.17;;
18596;SDS011;9428;50.950;6.912;2023-04-25T16:43:51;5.45;;;2.00;;
18596;SDS011;9428;50.950;6.912;2023-04-25T16:46:40;5.13;;;1.85;;
18596;SDS011;9428;50.950;6.912;2023-04-25T16:49:28;6.13;;;1.73;;
18596;SDS011;9428;50.950;6.912;2023-04-25T16:52:15;3.83;;;1.27;;
18596;SDS011;9428;50.950;6.912;2023-04-25T16:55:06;2.40;;;1.30;;
18596;SDS011;9428;50.950;6.912;2023-04-25T16:57:54;7.45;;;1.58;;
18596;SDS011;9428;50.950;6.912;2023-04-25T17:00:41;3.10;;;1.58;;